Time;durP1;ratioP1;P1;durP2;ratioP2;P2;SDS_P1;SDS_P2;PMS_P1;PMS_P2;Temp;Humidity;BMP_temperature;BMP_pressure;BME280_temperature;BME280_humidity;BME280_pressure;Samples;Min_cycle;Max_cycle;Signal;HPM_P1;HPM_P2
2021/04/02 00:00:38;;;;;;;;;;;;;;;21.13;47.84;101722.97;2099017;28;2101;-30
2021/04/02 00:01:38;;;;;;;;;;;;;;;21.12;47.92;101726.19;2103999;28;1252;-28
2021/04/02 00:02:39;;;;;;;;;;;;;;;21.13;47.90;101722.16;2100716;28;1290;-29
2021/04/02 00:03:40;;;;;;;;;;;;;;;21.12;47.79;101727.00;2103928;28;1212;-29
2021/04/02 00:04:41;;;;;;;;;;;;;;;21.13;47.91;101730.69;2103872;28;2033;-29
2021/04/02 00:05:42;;;;;;;;;;;;;;;21.13;47.92;101719.31;2098949;28;2589;-32
2021/04/02 00:06:42;;;;;;;;;;;;;;;21.13;47.77;101727.84;2099593;28;2246;-28
2021/04/02 00:07:43;;;;;;;;;;;;;;;21.13;47.93;101716.47;2106166;28;1137;-29
2021/04/02 00:08:44;;;;;;;;;;;;;;;21.12;47.78;101721.31;2103659;28;1388;-28
2021/04/02 00:09:45;;;;;;;;;;;;;;;21.12;47.91;101715.63;2100247;28;4291;-29
2021/04/02 00:10:45;;;;;;;;;;;;;;;21.12;47.69;101721.31;2103123;28;2088;-28
2021/04/02 00:11:46;;;;;;;;;;;;;;;21.13;47.81;101719.31;2104393;28;1150;-30
2021/04/02 00:12:47;;;;;;;;;;;;;;;21.12;47.85;101721.31;2098110;28;1575;-30
2021/04/02 00:13:48;;;;;;;;;;;;;;;21.12;47.90;101721.31;2100633;28;1260;-28
2021/04/02 00:14:48;;;;;;;;;;;;;;;21.12;47.92;101718.47;2102471;28;1441;-28
2021/04/02 00:15:49;;;;;;;;;;;;;;;21.12;47.68;101724.16;2099901;28;2148;-28
2021/04/02 00:16:50;;;;;;;;;;;;;;;21.12;47.74;101720.47;2104338;28;1269;-29
2021/04/02 00:17:51;;;;;;;;;;;;;;;21.12;47.73;101718.47;2102868;28;1926;-28
2021/04/02 00:18:51;;;;;;;;;;;;;;;21.13;47.63;101716.47;2097700;28;2218;-28
2021/04/02 00:19:52;;;;;;;;;;;;;;;21.12;47.79;101720.47;2100058;28;2097;-33
2021/04/02 00:20:53;;;;;;;;;;;;;;;21.12;47.63;101723.31;2101983;28;2155;-29
2021/04/02 00:21:54;;;;;;;;;;;;;;;21.13;47.67;101722.16;2102230;28;1682;-28
2021/04/02 00:22:54;;;;;;;;;;;;;;;21.12;47.56;101727.00;2103124;28;1156;-27
2021/04/02 00:23:55;;;;;;;;;;;;;;;21.12;47.67;101723.31;2096861;28;2183;-28
2021/04/02 00:24:56;;;;;;;;;;;;;;;21.11;47.79;101719.63;2102459;28;1776;-28
2021/04/02 00:25:57;;;;;;;;;;;;;;;21.12;47.71;101726.19;2096649;28;1557;-31
2021/04/02 00:26:58;;;;;;;;;;;;;;;21.13;47.70;101727.84;2104779;28;1421;-28
2021/04/02 00:27:59;;;;;;;;;;;;;;;21.11;47.49;101725.31;2112820;28;1797;-34
2021/04/02 00:28:59;;;;;;;;;;;;;;;21.11;47.72;101725.31;2105844;28;2161;-33
2021/04/02 00:30:00;;;;;;;;;;;;;;;21.12;47.64;101729.03;2110828;28;3813;-28
2021/04/02 00:31:01;;;;;;;;;;;;;;;21.12;47.74;101729.03;2105467;28;2306;-28
2021/04/02 00:32:02;;;;;;;;;;;;;;;21.12;47.57;101732.69;2111255;28;1648;-28
2021/04/02 00:33:03;;;;;;;;;;;;;;;21.11;47.55;101731.00;2108754;28;1411;-35
2021/04/02 00:34:06;;;;;;;;;;;;;;;21.12;47.48;101734.72;2104164;28;2090;-28
2021/04/02 00:35:07;;;;;;;;;;;;;;;21.12;47.64;101740.41;2113506;28;1607;-28
2021/04/02 00:36:07;;;;;;;;;;;;;;;21.12;47.57;101743.25;2112616;28;1272;-28
2021/04/02 00:37:08;;;;;;;;;;;;;;;21.11;47.55;101742.38;2108182;28;1914;-29
2021/04/02 00:38:09;;;;;;;;;;;;;;;21.13;47.58;101745.75;2103959;28;1851;-31
2021/04/02 00:39:11;;;;;;;;;;;;;;;21.12;47.51;101743.25;2107026;28;2375;-30
2021/04/02 00:40:12;;;;;;;;;;;;;;;21.12;47.43;101743.25;2109467;28;1747;-29
2021/04/02 00:41:13;;;;;;;;;;;;;;;21.13;47.61;101739.22;2105062;28;2179;-30
2021/04/02 00:42:13;;;;;;;;;;;;;;;21.12;47.52;101746.09;2112860;28;1162;-29
2021/04/02 00:43:14;;;;;;;;;;;;;;;21.12;47.49;101752.63;2109694;28;1916;-31
2021/04/02 00:44:15;;;;;;;;;;;;;;;21.11;47.51;101752.94;2103241;28;2457;-30
2021/04/02 00:45:16;;;;;;;;;;;;;;;21.11;47.53;101752.94;2113587;28;1485;-29
2021/04/02 00:46:16;;;;;;;;;;;;;;;21.10;47.36;101745.56;2108280;28;1552;-29
2021/04/02 00:47:17;;;;;;;;;;;;;;;21.12;47.42;101746.09;2110341;28;1118;-30
2021/04/02 00:48:18;;;;;;;;;;;;;;;21.11;47.45;101747.25;2109844;28;2107;-29
2021/04/02 00:49:19;;;;;;;;;;;;;;;21.11;47.30;101748.06;2107141;28;2630;-29
2021/04/02 00:50:19;;;;;;;;;;;;;;;21.11;47.42;101753.75;2108769;28;1885;-27
2021/04/02 00:51:20;;;;;;;;;;;;;;;21.12;47.43;101748.94;2107474;28;2178;-30
2021/04/02 00:52:21;;;;;;;;;;;;;;;21.12;47.28;101749.78;2113150;28;1262;-31
2021/04/02 00:53:22;;;;;;;;;;;;;;;21.13;47.32;101753.44;2108721;28;1677;-29
2021/04/02 00:54:22;;;;;;;;;;;;;;;21.14;47.36;101755.13;2112675;28;1113;-28
2021/04/02 00:55:23;;;;;;;;;;;;;;;21.12;47.23;101749.78;2109639;28;1537;-28
2021/04/02 00:56:24;;;;;;;;;;;;;;;21.13;47.40;101759.97;2112874;28;2414;-31
2021/04/02 00:57:25;;;;;;;;;;;;;;;21.14;47.29;101757.97;2106706;28;1941;-30
2021/04/02 00:58:25;;;;;;;;;;;;;;;21.13;47.17;101759.13;2114772;28;1774;-27
2021/04/02 00:59:27;;;;;;;;;;;;;;;21.14;47.27;101760.81;2113423;28;2162;-29
2021/04/02 01:00:28;;;;;;;;;;;;;;;21.12;47.31;101757.47;2109290;28;1806;-28
2021/04/02 01:01:28;;;;;;;;;;;;;;;21.09;47.10;101770.34;2106029;28;2442;-29
2021/04/02 01:02:29;;;;;;;;;;;;;;;21.06;47.08;101768.19;2107435;28;1688;-28
2021/04/02 01:03:30;;;;;;;;;;;;;;;21.07;47.26;101754.78;2109517;28;1436;-27
2021/04/02 01:04:31;;;;;;;;;;;;;;;21.07;47.13;101763.31;2113850;28;1338;-36
2021/04/02 01:05:31;;;;;;;;;;;;;;;21.07;47.10;101754.78;2109465;28;1160;-29
2021/04/02 01:06:32;;;;;;;;;;;;;;;21.08;47.16;101759.28;2109249;28;1428;-29
2021/04/02 01:07:33;;;;;;;;;;;;;;;21.07;47.11;101761.31;2104706;28;2140;-35
2021/04/02 01:08:35;;;;;;;;;;;;;;;21.08;46.99;101756.44;2108627;28;1696;-29
2021/04/02 01:09:35;;;;;;;;;;;;;;;21.09;46.90;101761.00;2106377;28;3808;-28
2021/04/02 01:10:36;;;;;;;;;;;;;;;21.08;47.03;101759.28;2113972;28;1224;-28
2021/04/02 01:11:37;;;;;;;;;;;;;;;21.09;46.86;101755.28;2106823;28;2137;-29
2021/04/02 01:12:38;;;;;;;;;;;;;;;21.08;46.97;101759.28;2112338;28;2872;-28
2021/04/02 01:13:38;;;;;;;;;;;;;;;21.08;47.02;101762.13;2107922;28;1146;-29
2021/04/02 01:14:39;;;;;;;;;;;;;;;21.08;47.00;101768.66;2106557;28;1582;-27
2021/04/02 01:15:40;;;;;;;;;;;;;;;21.08;46.73;101762.13;2109972;27;1171;-30
2021/04/02 01:16:41;;;;;;;;;;;;;;;21.08;47.00;101764.97;2108246;28;1980;-27
2021/04/02 01:17:42;;;;;;;;;;;;;;;21.08;46.97;101771.50;2102546;28;1967;-27
2021/04/02 01:18:43;;;;;;;;;;;;;;;21.07;46.95;101769.84;2108497;28;1388;-28
2021/04/02 01:19:44;;;;;;;;;;;;;;;21.07;46.81;101758.47;2108553;28;1571;-29
2021/04/02 01:20:44;;;;;;;;;;;;;;;21.06;46.94;101764.47;2109104;28;1640;-28
2021/04/02 01:21:45;;;;;;;;;;;;;;;21.07;46.81;101760.47;2111086;28;2178;-28
2021/04/02 01:22:46;;;;;;;;;;;;;;;21.06;46.85;101770.16;2108968;28;2656;-27
2021/04/02 01:23:46;;;;;;;;;;;;;;;21.05;46.78;101766.47;2114488;28;1149;-28
2021/04/02 01:24:47;;;;;;;;;;;;;;;21.06;47.00;101758.78;2109629;28;1678;-28
2021/04/02 01:25:48;;;;;;;;;;;;;;;21.05;46.82;101763.63;2108024;28;1734;-29
2021/04/02 01:26:49;;;;;;;;;;;;;;;21.05;46.78;101762.81;2107385;28;2150;-35
2021/04/02 01:27:51;;;;;;;;;;;;;;;21.05;46.74;101755.09;2104148;28;1627;-29
2021/04/02 01:28:51;;;;;;;;;;;;;;;21.05;46.81;101765.66;2108011;28;1308;-28
2021/04/02 01:29:54;;;;;;;;;;;;;;;21.05;46.95;101763.63;2104995;28;1417;-27
2021/04/02 01:30:54;;;;;;;;;;;;;;;21.05;46.82;101762.81;2104461;28;1587;-28
2021/04/02 01:31:55;;;;;;;;;;;;;;;21.04;46.79;101764.81;2105446;28;2244;-28
2021/04/02 01:32:56;;;;;;;;;;;;;;;21.05;46.95;101757.13;2110521;28;1986;-26
2021/04/02 01:33:57;;;;;;;;;;;;;;;21.05;46.79;101765.66;2104306;28;2106;-33
2021/04/02 01:34:57;;;;;;;;;;;;;;;21.04;46.86;101764.81;2107171;28;1278;-28
2021/04/02 01:35:58;;;;;;;;;;;;;;;21.05;46.82;101765.66;2107558;28;1509;-28
2021/04/02 01:36:59;;;;;;;;;;;;;;;21.03;46.89;101754.59;2106170;28;2106;-29
2021/04/02 01:38:00;;;;;;;;;;;;;;;21.04;46.87;101756.28;2103788;28;1910;-28
2021/04/02 01:39:00;;;;;;;;;;;;;;;21.04;46.79;101766.81;2105924;28;1491;-28
2021/04/02 01:40:01;;;;;;;;;;;;;;;21.03;46.72;101760.28;2107289;28;1864;-28
2021/04/02 01:41:02;;;;;;;;;;;;;;;21.04;46.84;101763.97;2106748;28;1606;-29
2021/04/02 01:42:03;;;;;;;;;;;;;;;21.03;46.78;101759.44;2106262;28;2149;-28
2021/04/02 01:43:03;;;;;;;;;;;;;;;21.04;46.79;101761.97;2099581;28;1105;-29
2021/04/02 01:44:04;;;;;;;;;;;;;;;21.04;46.66;101755.44;2107188;28;1365;-28
2021/04/02 01:45:05;;;;;;;;;;;;;;;21.05;46.78;101765.66;2106597;28;1754;-28
2021/04/02 01:46:06;;;;;;;;;;;;;;;21.04;46.76;101764.81;2106375;28;1515;-32
2021/04/02 01:47:06;;;;;;;;;;;;;;;21.05;46.65;101768.50;2106424;28;2336;-29
2021/04/02 01:48:07;;;;;;;;;;;;;;;21.04;46.66;101770.50;2098772;28;2550;-35
2021/04/02 01:49:08;;;;;;;;;;;;;;;21.04;46.59;101766.81;2102962;28;2157;-28
2021/04/02 01:50:09;;;;;;;;;;;;;;;21.04;46.78;101767.66;2106823;28;1122;-27
2021/04/02 01:51:09;;;;;;;;;;;;;;;21.04;46.61;101761.13;2104243;28;2175;-30
2021/04/02 01:52:10;;;;;;;;;;;;;;;21.04;46.55;101763.97;2107059;28;1888;-31
2021/04/02 01:53:11;;;;;;;;;;;;;;;21.02;46.62;101767.16;2104991;28;2099;-28
2021/04/02 01:54:15;;;;;;;;;;;;;;;21.03;46.62;101765.13;2098637;28;1478;-28
2021/04/02 01:55:16;;;;;;;;;;;;;;;21.02;46.79;101761.44;2107058;28;1604;-32
2021/04/02 01:56:16;;;;;;;;;;;;;;;21.02;46.81;101755.75;2103825;28;2173;-27
2021/04/02 01:57:17;;;;;;;;;;;;;;;21.01;46.63;101761.81;2105255;28;1529;-34
2021/04/02 01:58:18;;;;;;;;;;;;;;;21.01;46.69;101762.63;2101886;28;2159;-30
2021/04/02 01:59:19;;;;;;;;;;;;;;;21.02;46.73;101767.16;2115185;28;1625;-29
2021/04/02 02:00:19;;;;;;;;;;;;;;;21.01;46.64;101765.47;2110366;28;1601;-28
2021/04/02 02:01:20;;;;;;;;;;;;;;;21.01;46.61;101767.50;2103893;28;2108;-28
2021/04/02 02:02:21;;;;;;;;;;;;;;;21.01;46.72;101767.50;2112156;28;1674;-28
2021/04/02 02:03:21;;;;;;;;;;;;;;;21.01;46.60;101767.50;2111672;28;1530;-29
2021/04/02 02:04:22;;;;;;;;;;;;;;;21.01;46.50;101764.66;2105545;28;1553;-27
2021/04/02 02:05:23;;;;;;;;;;;;;;;21.01;46.53;101765.47;2110218;28;1707;-27
2021/04/02 02:06:24;;;;;;;;;;;;;;;21.00;46.65;101766.63;2106384;28;2096;-28
2021/04/02 02:07:24;;;;;;;;;;;;;;;21.01;46.63;101770.34;2115270;28;1199;-34
2021/04/02 02:08:25;;;;;;;;;;;;;;;21.01;46.72;101770.34;2106318;28;2128;-28
2021/04/02 02:09:27;;;;;;;;;;;;;;;21.01;46.58;101764.66;2105110;28;2240;-27
2021/04/02 02:10:27;;;;;;;;;;;;;;;21.01;46.74;101773.19;2115211;28;1807;-27
2021/04/02 02:11:28;;;;;;;;;;;;;;;21.00;46.58;101769.47;2109539;28;1826;-31
2021/04/02 02:12:29;;;;;;;;;;;;;;;21.01;46.76;101764.66;2103313;28;1553;-28
2021/04/02 02:13:30;;;;;;;;;;;;;;;21.00;46.53;101766.63;2106981;28;1359;-31
2021/04/02 02:14:30;;;;;;;;;;;;;;;21.00;46.53;101769.47;2105852;28;2120;-29
2021/04/02 02:15:31;;;;;;;;;;;;;;;21.00;46.75;101763.78;2107765;28;1240;-29
2021/04/02 02:16:32;;;;;;;;;;;;;;;21.00;46.53;101763.78;2108798;28;1329;-28
2021/04/02 02:17:33;;;;;;;;;;;;;;;21.01;46.51;101770.34;2113850;28;1902;-28
2021/04/02 02:18:33;;;;;;;;;;;;;;;21.00;46.72;101768.63;2103277;28;2266;-27
2021/04/02 02:19:34;;;;;;;;;;;;;;;20.99;46.49;101767.81;2109496;28;1757;-28
2021/04/02 02:20:35;;;;;;;;;;;;;;;20.99;46.69;101767.81;2100208;28;2145;-29
2021/04/02 02:21:36;;;;;;;;;;;;;;;21.00;46.45;101768.63;2114796;28;1958;-37
2021/04/02 02:22:38;;;;;;;;;;;;;;;21.00;46.48;101768.63;2109251;28;1591;-30
2021/04/02 02:23:39;;;;;;;;;;;;;;;20.99;46.50;101767.81;2113391;28;2114;-34
2021/04/02 02:24:40;;;;;;;;;;;;;;;21.00;46.55;101768.63;2108323;28;2502;-32
2021/04/02 02:25:41;;;;;;;;;;;;;;;20.99;46.68;101769.81;2106287;28;2158;-30
2021/04/02 02:26:43;;;;;;;;;;;;;;;20.99;46.53;101772.66;2114399;28;1288;-28
2021/04/02 02:27:44;;;;;;;;;;;;;;;20.99;46.56;101769.81;2109501;28;1358;-30
2021/04/02 02:28:44;;;;;;;;;;;;;;;21.00;46.67;101774.34;2104205;28;2174;-28
2021/04/02 02:29:45;;;;;;;;;;;;;;;20.99;46.65;101775.50;2114298;28;1217;-33
2021/04/02 02:30:46;;;;;;;;;;;;;;;20.99;46.49;101773.50;2110763;28;1271;-28
2021/04/02 02:31:46;;;;;;;;;;;;;;;20.98;46.46;101769.00;2114650;28;1234;-28
2021/04/02 02:32:47;;;;;;;;;;;;;;;20.98;46.58;101777.53;2111149;28;1386;-28
2021/04/02 02:33:48;;;;;;;;;;;;;;;20.97;46.64;101761.59;2104840;28;2183;-27
2021/04/02 02:34:50;;;;;;;;;;;;;;;20.98;46.51;101766.13;2109731;28;1583;-28
2021/04/02 02:35:50;;;;;;;;;;;;;;;20.98;46.54;101769.00;2109427;28;1665;-29
2021/04/02 02:36:52;;;;;;;;;;;;;;;20.98;46.51;101768.13;2107774;28;1501;-29
2021/04/02 02:37:55;;;;;;;;;;;;;;;20.98;46.48;101771.84;2114460;28;1973;-28
2021/04/02 02:38:56;;;;;;;;;;;;;;;20.98;46.58;101766.13;2105897;28;2064;-28
2021/04/02 02:39:57;;;;;;;;;;;;;;;20.97;46.51;101757.94;2107642;28;1223;-27
2021/04/02 02:40:58;;;;;;;;;;;;;;;20.98;46.45;101760.44;2114278;28;1768;-28
2021/04/02 02:41:58;;;;;;;;;;;;;;;20.98;46.44;101766.13;2106663;28;2199;-28
2021/04/02 02:42:59;;;;;;;;;;;;;;;20.98;46.59;101768.13;2107872;28;1238;-28
2021/04/02 02:44:00;;;;;;;;;;;;;;;20.97;46.46;101764.44;2108021;28;1371;-29
2021/04/02 02:45:01;;;;;;;;;;;;;;;20.97;46.44;101766.47;2113412;28;1521;-28
2021/04/02 02:46:02;;;;;;;;;;;;;;;20.97;46.53;101770.13;2108402;28;1362;-28
2021/04/02 02:47:02;;;;;;;;;;;;;;;20.97;46.51;101758.75;2106716;28;2201;-28
2021/04/02 02:48:03;;;;;;;;;;;;;;;20.97;46.38;101769.31;2113638;28;1767;-28
2021/04/02 02:49:04;;;;;;;;;;;;;;;20.96;46.62;101757.09;2105333;28;2143;-29
2021/04/02 02:50:05;;;;;;;;;;;;;;;20.97;46.50;101763.63;2109817;28;1571;-28
2021/04/02 02:51:05;;;;;;;;;;;;;;;20.97;46.47;101764.44;2110676;28;2119;-31
2021/04/02 02:52:06;;;;;;;;;;;;;;;20.98;46.42;101768.13;2102438;28;1449;-28
2021/04/02 02:53:07;;;;;;;;;;;;;;;20.97;46.67;101760.78;2111259;28;1331;-36
2021/04/02 02:54:08;;;;;;;;;;;;;;;20.96;46.49;101761.94;2113457;28;1967;-29
2021/04/02 02:55:08;;;;;;;;;;;;;;;20.95;46.54;101766.81;2111187;28;1303;-36
2021/04/02 02:56:09;;;;;;;;;;;;;;;20.96;46.44;101771.31;2104645;28;2126;-28
2021/04/02 02:57:10;;;;;;;;;;;;;;;20.95;46.42;101758.28;2106718;28;1403;-29
2021/04/02 02:58:11;;;;;;;;;;;;;;;20.96;46.53;101761.94;2109819;28;1984;-28
2021/04/02 02:59:11;;;;;;;;;;;;;;;20.95;46.47;101765.94;2106119;28;2136;-29
2021/04/02 03:00:12;;;;;;;;;;;;;;;20.95;46.40;101761.13;2103606;28;1618;-28
2021/04/02 03:01:13;;;;;;;;;;;;;;;20.96;46.39;101761.94;2113609;28;2186;-30
2021/04/02 03:02:14;;;;;;;;;;;;;;;20.96;46.49;101764.78;2115238;28;1903;-31
2021/04/02 03:03:15;;;;;;;;;;;;;;;20.95;46.40;101768.78;2110318;28;1381;-27
2021/04/02 03:04:16;;;;;;;;;;;;;;;20.94;46.38;101759.41;2103912;28;2174;-27
2021/04/02 03:05:17;;;;;;;;;;;;;;;20.95;46.44;101765.94;2107033;28;1378;-27
2021/04/02 03:06:18;;;;;;;;;;;;;;;20.95;46.37;101763.09;2113495;28;1553;-28
2021/04/02 03:07:18;;;;;;;;;;;;;;;20.94;46.34;101761.44;2108267;28;1125;-28
2021/04/02 03:08:19;;;;;;;;;;;;;;;20.95;46.52;101765.94;2110041;28;1374;-28
2021/04/02 03:09:20;;;;;;;;;;;;;;;20.95;46.26;101758.28;2109557;28;3971;-29
2021/04/02 03:10:21;;;;;;;;;;;;;;;20.96;46.48;101767.63;2107940;28;1976;-28
2021/04/02 03:11:22;;;;;;;;;;;;;;;20.95;46.25;101763.09;2111612;28;1333;-28
2021/04/02 03:12:22;;;;;;;;;;;;;;;20.95;46.25;101760.25;2109027;28;1636;-28
2021/04/02 03:13:23;;;;;;;;;;;;;;;20.94;46.24;101756.56;2108709;28;1585;-34
2021/04/02 03:14:24;;;;;;;;;;;;;;;20.95;46.27;101748.88;2107281;28;2048;-27
2021/04/02 03:15:25;;;;;;;;;;;;;;;20.95;46.24;101757.41;2114179;28;1141;-28
2021/04/02 03:16:26;;;;;;;;;;;;;;;20.94;46.29;101758.59;2111054;28;1210;-28
2021/04/02 03:17:26;;;;;;;;;;;;;;;20.94;46.34;101752.91;2113899;28;1286;-34
2021/04/02 03:18:27;;;;;;;;;;;;;;;20.93;46.47;101752.06;2113593;28;1906;-29
2021/04/02 03:19:28;;;;;;;;;;;;;;;20.93;46.28;101752.06;2108373;28;2150;-29
2021/04/02 03:20:29;;;;;;;;;;;;;;;20.94;46.47;101752.91;2110836;28;1060;-28
2021/04/02 03:21:30;;;;;;;;;;;;;;;20.92;46.46;101750.38;2115295;28;1623;-29
2021/04/02 03:22:31;;;;;;;;;;;;;;;20.91;46.46;101746.69;2111638;28;1472;-28
2021/04/02 03:23:32;;;;;;;;;;;;;;;20.93;46.41;101751.22;2114042;28;1198;-31
2021/04/02 03:24:32;;;;;;;;;;;;;;;20.92;46.50;101747.53;2108625;28;2158;-28
2021/04/02 03:25:33;;;;;;;;;;;;;;;20.91;46.42;101749.53;2107473;28;1615;-29
2021/04/02 03:26:34;;;;;;;;;;;;;;;20.93;46.55;101745.53;2104112;28;2106;-31
2021/04/02 03:27:34;;;;;;;;;;;;;;;20.92;46.55;101753.22;2106230;28;1835;-31
2021/04/02 03:28:35;;;;;;;;;;;;;;;20.93;46.47;101742.69;2111054;28;1154;-29
2021/04/02 03:29:36;;;;;;;;;;;;;;;20.93;46.55;101751.22;2105550;28;2200;-29
2021/04/02 03:30:37;;;;;;;;;;;;;;;20.91;46.45;101752.38;2107937;28;1389;-28
2021/04/02 03:31:37;;;;;;;;;;;;;;;20.91;46.53;101749.53;2110454;28;1238;-28
2021/04/02 03:32:39;;;;;;;;;;;;;;;20.91;46.37;101749.53;2123736;27;1629;-28
2021/04/02 03:33:39;;;;;;;;;;;;;;;20.92;46.39;101750.38;2123567;27;1524;-30
2021/04/02 03:34:40;;;;;;;;;;;;;;;20.92;46.64;101744.69;2104700;28;2338;-28
2021/04/02 03:35:41;;;;;;;;;;;;;;;20.91;46.59;101735.31;2108944;28;1957;-28
2021/04/02 03:36:41;;;;;;;;;;;;;;;20.92;46.45;101733.31;2109309;28;2390;-28
2021/04/02 03:37:42;;;;;;;;;;;;;;;20.92;46.45;101733.31;2099607;28;1917;-29
2021/04/02 03:38:43;;;;;;;;;;;;;;;20.91;46.46;101738.16;2108255;28;1255;-29
2021/04/02 03:39:44;;;;;;;;;;;;;;;20.91;46.49;101732.47;2104448;28;2441;-27
2021/04/02 03:40:44;;;;;;;;;;;;;;;20.91;46.55;101735.31;2104864;28;1535;-29
2021/04/02 03:41:45;;;;;;;;;;;;;;;20.91;46.57;101729.63;2103902;28;2365;-29
2021/04/02 03:42:46;;;;;;;;;;;;;;;20.91;46.47;101725.94;2108107;28;1160;-31
2021/04/02 03:43:47;;;;;;;;;;;;;;;20.92;46.62;101727.63;2108042;28;1261;-27
2021/04/02 03:44:47;;;;;;;;;;;;;;;20.90;46.62;101727.13;2104551;28;2196;-28
2021/04/02 03:45:48;;;;;;;;;;;;;;;20.90;46.64;101725.13;2106490;28;1724;-28
2021/04/02 03:46:49;;;;;;;;;;;;;;;20.91;46.51;101725.94;2107289;28;1485;-30
2021/04/02 03:47:50;;;;;;;;;;;;;;;20.91;46.59;101728.78;2107995;28;1207;-30
2021/04/02 03:48:50;;;;;;;;;;;;;;;20.91;46.51;101728.78;2106739;28;1630;-28
2021/04/02 03:49:51;;;;;;;;;;;;;;;20.92;46.62;101736.16;2104592;28;1681;-27
2021/04/02 03:50:52;;;;;;;;;;;;;;;20.90;46.50;101725.13;2107915;28;1723;-32
2021/04/02 03:51:53;;;;;;;;;;;;;;;20.89;46.52;101731.97;2103284;28;2557;-28
2021/04/02 03:52:54;;;;;;;;;;;;;;;20.90;46.53;101736.50;2108004;28;1145;-27
2021/04/02 03:53:54;;;;;;;;;;;;;;;20.91;46.49;101729.63;2107458;28;1907;-29
2021/04/02 03:54:55;;;;;;;;;;;;;;;20.91;46.60;101723.09;2105608;28;2071;-30
2021/04/02 03:55:56;;;;;;;;;;;;;;;20.89;46.64;101731.97;2107569;28;1483;-27
2021/04/02 03:56:57;;;;;;;;;;;;;;;20.89;46.69;101726.28;2107906;28;1304;-28
2021/04/02 03:57:57;;;;;;;;;;;;;;;20.89;46.64;101729.09;2107969;28;1910;-28
2021/04/02 03:58:58;;;;;;;;;;;;;;;20.90;46.61;101729.97;2108180;28;1678;-29
2021/04/02 03:59:59;;;;;;;;;;;;;;;20.89;46.57;101729.09;2104955;28;2162;-28
2021/04/02 04:01:00;;;;;;;;;;;;;;;20.88;46.68;101727.44;2104553;28;1243;-28
2021/04/02 04:02:00;;;;;;;;;;;;;;;20.89;46.66;101729.09;2107843;28;1526;-29
2021/04/02 04:03:01;;;;;;;;;;;;;;;20.88;46.68;101727.44;2106625;28;2083;-28
2021/04/02 04:04:02;;;;;;;;;;;;;;;20.89;46.47;101722.59;2107302;28;1103;-29
2021/04/02 04:05:03;;;;;;;;;;;;;;;20.89;46.45;101729.09;2104776;28;2134;-27
2021/04/02 04:06:03;;;;;;;;;;;;;;;20.89;46.51;101728.28;2103554;28;1102;-30
2021/04/02 04:07:04;;;;;;;;;;;;;;;20.90;46.59;101727.13;2107773;28;1839;-31
2021/04/02 04:08:05;;;;;;;;;;;;;;;20.89;46.54;101728.28;2107035;28;2137;-30
2021/04/02 04:09:06;;;;;;;;;;;;;;;20.88;46.58;101721.75;2103539;28;3880;-28
2021/04/02 04:10:06;;;;;;;;;;;;;;;20.89;46.49;101728.28;2105730;28;1810;-29
2021/04/02 04:11:07;;;;;;;;;;;;;;;20.89;46.56;101729.09;2107224;28;1260;-31
2021/04/02 04:12:08;;;;;;;;;;;;;;;20.89;46.47;101728.28;2107954;28;1197;-29
2021/04/02 04:13:09;;;;;;;;;;;;;;;20.89;46.63;101725.44;2107106;28;2296;-28
2021/04/02 04:14:09;;;;;;;;;;;;;;;20.88;46.53;101730.28;2102397;28;2515;-28
2021/04/02 04:15:10;;;;;;;;;;;;;;;20.88;46.41;101730.28;2105704;28;1618;-29
2021/04/02 04:16:11;;;;;;;;;;;;;;;20.88;46.58;101726.63;2102041;28;2265;-27
2021/04/02 04:17:12;;;;;;;;;;;;;;;20.87;46.69;101728.63;2107741;28;1148;-28
2021/04/02 04:18:13;;;;;;;;;;;;;;;20.88;46.67;101726.63;2107541;28;2110;-33
2021/04/02 04:19:13;;;;;;;;;;;;;;;20.87;46.51;101733.47;2101379;28;2524;-27
2021/04/02 04:20:14;;;;;;;;;;;;;;;20.87;46.52;101733.47;2107086;28;2127;-29
2021/04/02 04:21:15;;;;;;;;;;;;;;;20.87;46.70;101736.31;2106440;28;1324;-31
2021/04/02 04:22:16;;;;;;;;;;;;;;;20.87;46.52;101737.16;2109571;28;1310;-28
2021/04/02 04:23:16;;;;;;;;;;;;;;;20.88;46.56;101723.78;2107488;28;2122;-32
2021/04/02 04:24:17;;;;;;;;;;;;;;;20.87;46.70;101731.47;2102644;28;2723;-27
2021/04/02 04:25:18;;;;;;;;;;;;;;;20.87;46.60;101728.63;2107698;28;1710;-29
2021/04/02 04:26:23;;;;;;;;;;;;;;;20.87;46.61;101725.78;2107613;28;1601;-28
2021/04/02 04:27:23;;;;;;;;;;;;;;;20.87;46.47;101725.78;2107182;28;1565;-32
2021/04/02 04:28:24;;;;;;;;;;;;;;;20.86;46.41;101726.94;2101151;28;2095;-30
2021/04/02 04:29:25;;;;;;;;;;;;;;;20.86;46.48;101726.94;2104673;28;1406;-28
2021/04/02 04:30:26;;;;;;;;;;;;;;;20.86;46.49;101732.63;2107540;28;1385;-28
2021/04/02 04:31:27;;;;;;;;;;;;;;;20.86;46.63;101726.94;2107641;28;1074;-33
2021/04/02 04:32:28;;;;;;;;;;;;;;;20.86;46.64;101735.47;2108702;28;1286;-27
2021/04/02 04:33:28;;;;;;;;;;;;;;;20.86;46.51;101728.94;2113338;28;2093;-29
2021/04/02 04:34:29;;;;;;;;;;;;;;;20.85;46.56;101724.44;2104483;28;2553;-28
2021/04/02 04:35:30;;;;;;;;;;;;;;;20.86;46.54;101740.31;2107349;28;1520;-30
2021/04/02 04:36:31;;;;;;;;;;;;;;;20.86;46.53;101724.09;2107542;28;1220;-31
2021/04/02 04:37:31;;;;;;;;;;;;;;;20.86;46.58;101731.78;2107689;28;2142;-28
2021/04/02 04:38:32;;;;;;;;;;;;;;;20.86;46.51;101734.63;2102080;28;1906;-32
2021/04/02 04:39:33;;;;;;;;;;;;;;;20.85;46.54;101730.97;2099642;28;2678;-29
2021/04/02 04:40:34;;;;;;;;;;;;;;;20.85;46.56;101733.78;2105795;28;2296;-30
2021/04/02 04:41:34;;;;;;;;;;;;;;;20.86;46.62;101726.94;2107600;28;1412;-31
2021/04/02 04:42:35;;;;;;;;;;;;;;;20.84;46.64;101720.75;2107499;28;1746;-28
2021/04/02 04:43:36;;;;;;;;;;;;;;;20.85;46.55;101721.59;2100789;28;2128;-29
2021/04/02 04:44:37;;;;;;;;;;;;;;;20.85;46.57;101732.97;2101243;28;2353;-30
2021/04/02 04:45:38;;;;;;;;;;;;;;;20.84;46.54;101732.13;2103755;28;2514;-28
2021/04/02 04:46:38;;;;;;;;;;;;;;;20.85;46.56;101727.28;2108620;28;2461;-31
2021/04/02 04:47:39;;;;;;;;;;;;;;;20.85;46.35;101738.66;2114052;28;2140;-29
2021/04/02 04:48:40;;;;;;;;;;;;;;;20.84;46.41;101723.59;2108176;28;1668;-31
2021/04/02 04:49:41;;;;;;;;;;;;;;;20.84;46.39;101726.44;2114510;28;1263;-27
2021/04/02 04:50:42;;;;;;;;;;;;;;;20.83;46.52;101719.06;2108736;28;1102;-27
2021/04/02 04:51:43;;;;;;;;;;;;;;;20.83;46.52;101727.59;2101145;27;2164;-27
2021/04/02 04:52:46;;;;;;;;;;;;;;;20.83;46.47;101730.44;2102357;28;1638;-28
2021/04/02 04:53:47;;;;;;;;;;;;;;;20.83;46.36;101733.28;2106493;28;3737;-28
2021/04/02 04:54:48;;;;;;;;;;;;;;;20.83;46.35;101729.59;2111477;28;1564;-29
2021/04/02 04:55:48;;;;;;;;;;;;;;;20.83;46.44;101730.44;2115604;28;1200;-40
2021/04/02 04:56:49;;;;;;;;;;;;;;;20.83;46.46;101730.44;2103377;28;2286;-28
2021/04/02 04:57:50;;;;;;;;;;;;;;;20.82;46.48;101728.78;2101385;28;1134;-28
2021/04/02 04:58:51;;;;;;;;;;;;;;;20.82;46.41;101742.16;2115244;28;1889;-29
2021/04/02 04:59:52;;;;;;;;;;;;;;;20.83;46.34;101733.28;2109935;28;1594;-29
2021/04/02 05:00:53;;;;;;;;;;;;;;;20.82;46.41;101731.63;2113028;28;1234;-32
2021/04/02 05:01:53;;;;;;;;;;;;;;;20.83;46.35;101746.66;2106372;28;2123;-28
2021/04/02 05:02:54;;;;;;;;;;;;;;;20.82;46.20;101733.63;2102929;28;1489;-28
2021/04/02 05:03:55;;;;;;;;;;;;;;;20.83;46.33;101738.13;2114617;28;1251;-28
2021/04/02 05:04:56;;;;;;;;;;;;;;;20.82;46.43;101739.31;2109656;28;2038;-28
2021/04/02 05:05:56;;;;;;;;;;;;;;;20.81;46.44;101741.28;2098526;28;2320;-28
2021/04/02 05:06:57;;;;;;;;;;;;;;;20.82;46.41;101745.00;2105757;28;2156;-28
2021/04/02 05:07:58;;;;;;;;;;;;;;;20.81;46.38;101744.16;2108695;28;1443;-29
2021/04/02 05:08:58;;;;;;;;;;;;;;;20.81;46.21;101749.84;2113912;28;3882;-28
2021/04/02 05:09:59;;;;;;;;;;;;;;;20.81;46.29;101749.84;2107941;28;1752;-30
2021/04/02 05:11:01;;;;;;;;;;;;;;;20.81;46.34;101746.97;2112449;28;2535;-28
2021/04/02 05:12:02;;;;;;;;;;;;;;;20.81;46.42;101755.53;2111459;28;1054;-28
2021/04/02 05:13:02;;;;;;;;;;;;;;;20.81;46.25;101758.38;2109909;28;1920;-29
2021/04/02 05:14:03;;;;;;;;;;;;;;;20.81;46.35;101761.22;2114006;28;1515;-30
2021/04/02 05:15:04;;;;;;;;;;;;;;;20.81;46.33;101761.22;2114219;28;1758;-35
2021/04/02 05:16:05;;;;;;;;;;;;;;;20.80;46.25;101755.88;2104383;28;2622;-33
2021/04/02 05:17:05;;;;;;;;;;;;;;;20.80;46.29;101750.19;2106325;28;2183;-28